OIIK  Qazvin Airport

Add Bookmark

Qazvin, Iran

Status
Operational
Latitude Longitude
36° 14' 24" N 50° 2' 49" E
36.240101 50.047100
Local (DST + 5) UTC (GMT + 4)
Jan 30, 2015 02:23 Jan 30, 2015 10:53
Sunrise-Sunset Local UTC
Begin Civil Twilight 06:43 03:13
Sunrise 07:10 03:40
Sunset 05:35 14:05
End Civil Twilight 06:02 14:32

Current Weather

METAR Observed VFR
OIIK 301000Z 13010KT 9999 FEW035CB SCT040 BKN100 12/02 Q1016 Fri, Jan 30, 2015 @ 10:00 UTC
(53 Minutes ago)
Visual Flight Rules
Wind Visibility Clouds Conditions
130° at 10 knots (19 kph) 10 km or more
  • Few at 3,500' AGL
  • Scattered at 4,000' AGL
  • Broken at 10,000' AGL
  • No significant weather
Temperatures Readings Precipitation
Current Temp 12°C (54°F)
Dewpoint 2°C (36°F)
Humidity 51%
Altimeter 30"Hg
Sea Level Pressure 1016mb
Field Elevation 4192.91'
None Recorded

Additional weather within a 92.6km radius of OIIK

Map ICAO Location
OIIP 87km S (126°)

24 Hour Weather History

Loading
-

24 Hour Weather Graphs

Loading
-

CheckWX.com is intended as a tool to help pilots better visualize weather data. It is not intended as a substitute for an official weather briefing obtained from a Flight Service Station. CheckWX.com does not meet the FAA requirements for an official pre-flight weather briefing. Therefore, it's important that pilots still call and obtain an official FSS pre-flight weather briefing.